KVHN/VHN METAR and TAF weather

Enter ICAO airport designator
Station Type Date Time Source
KVHN METAR 2023/02/05 20:35 UTC NOAA

KVHN 052035Z AUTO 21012G17KT 10SM CLR 24/M10 A3017 RMK AO2 T02361097


Station Type Date Time Source
KVHN Decoded METAR 2023/02/05 20:35 UTC NOAA

Station name not available
Feb 05, 2023 - 03:35 PM EST / 2023.02.05 2035 UTC
Wind: from the SSW (210 degrees) at 14 MPH (12 KT) gusting to 20 MPH (17 KT):0
Visibility: 10 mile(s):0
Sky conditions: clear
Temperature: 74.5 F (23.6 C)
Dew Point: 14.5 F (-9.7 C)
Relative Humidity: 10%
Pressure (altimeter): 30.17 in. Hg (1021 hPa)
ob: KVHN 052035Z AUTO 21012G17KT 10SM CLR 24/M10 A3017 RMK AO2 T02361097
cycle: 20

Station Type Date Time Source
KVHN TAF UTC NOAA

Error!

Example: see airport list